createdAt,value
2018-04-14T00:02:10.298Z,10.30
2018-04-14T00:04:38.352Z,10.20
2018-04-14T00:07:06.441Z,10.30
2018-04-14T00:09:34.506Z,10.40
2018-04-14T00:12:02.568Z,10.40
2018-04-14T00:14:30.644Z,10.30
2018-04-14T00:16:58.729Z,10.40
2018-04-14T00:19:26.789Z,10.10
2018-04-14T00:21:54.845Z,10.10
2018-04-14T00:24:22.913Z,10.10
2018-04-14T00:26:52.093Z,10.40
2018-04-14T00:29:20.392Z,10.50
2018-04-14T00:31:48.448Z,10.50
2018-04-14T00:34:16.518Z,10.40
2018-04-14T00:36:44.567Z,10.30
2018-04-14T00:39:12.661Z,10.30
2018-04-14T00:41:40.708Z,10.30
2018-04-14T00:44:08.763Z,10.20
2018-04-14T00:46:36.889Z,10.00
2018-04-14T00:49:04.960Z,9.90
2018-04-14T00:51:33.016Z,9.80
2018-04-14T00:54:01.088Z,9.80
2018-04-14T00:56:29.144Z,9.80
2018-04-14T00:58:57.189Z,9.70
2018-04-14T01:01:25.252Z,9.70
2018-04-14T01:03:54.200Z,9.70
2018-04-14T01:06:22.264Z,9.60
2018-04-14T01:08:50.837Z,9.50
2018-04-14T01:11:18.896Z,9.50
2018-04-14T01:13:46.951Z,9.50
2018-04-14T01:16:15.023Z,9.40
2018-04-14T01:18:43.081Z,9.30
2018-04-14T01:21:11.137Z,9.30
2018-04-14T01:23:39.188Z,9.20
2018-04-14T01:26:07.348Z,9.10
2018-04-14T01:28:35.403Z,9.20
2018-04-14T01:31:03.457Z,9.30
2018-04-14T01:33:31.508Z,9.30
2018-04-14T01:35:59.625Z,9.40
2018-04-14T01:38:27.678Z,9.30
2018-04-14T01:40:55.769Z,9.30
2018-04-14T01:43:23.816Z,9.50
2018-04-14T01:45:52.533Z,9.40
2018-04-14T01:48:21.425Z,9.20
2018-04-14T01:50:49.484Z,9.10
2018-04-14T01:53:17.537Z,9.00
2018-04-14T01:55:45.646Z,8.80
2018-04-14T01:58:13.702Z,8.80
2018-04-14T02:00:41.759Z,8.80
2018-04-14T02:03:09.816Z,8.80
2018-04-14T02:05:37.881Z,8.90
2018-04-14T02:08:05.934Z,9.00
2018-04-14T02:10:34.045Z,8.90
2018-04-14T02:13:02.095Z,8.80
2018-04-14T02:15:30.156Z,8.80
2018-04-14T02:17:58.204Z,8.90
2018-04-14T02:20:26.268Z,9.00
2018-04-14T02:22:54.396Z,9.00
2018-04-14T02:25:22.469Z,9.00
2018-04-14T02:27:50.521Z,9.00
2018-04-14T02:30:18.609Z,9.10
2018-04-14T02:32:46.671Z,8.90
2018-04-14T02:35:14.741Z,9.20
2018-04-14T02:37:42.793Z,9.00
2018-04-14T02:40:10.855Z,9.00
2018-04-14T02:42:38.959Z,9.10
2018-04-14T02:45:07.017Z,9.00
2018-04-14T02:47:35.070Z,9.00
2018-04-14T02:50:03.148Z,9.00
2018-04-14T02:52:31.198Z,9.10
2018-04-14T02:54:59.308Z,9.20
2018-04-14T02:57:27.372Z,9.20
2018-04-14T02:59:55.433Z,9.00
2018-04-14T03:02:24.190Z,8.90
2018-04-14T03:04:53.415Z,8.70
2018-04-14T03:07:22.579Z,8.90
2018-04-14T03:09:50.708Z,9.00
2018-04-14T03:12:18.776Z,9.00
2018-04-14T03:14:46.828Z,9.00
2018-04-14T03:17:14.893Z,9.10
2018-04-14T03:19:42.969Z,8.90
2018-04-14T03:22:11.031Z,8.90
2018-04-14T03:24:39.081Z,8.90
2018-04-14T03:27:07.182Z,8.90
2018-04-14T03:29:35.271Z,8.90
2018-04-14T03:32:03.350Z,8.90
2018-04-14T03:34:31.403Z,8.80
2018-04-14T03:36:59.452Z,8.60
2018-04-14T03:39:27.553Z,8.70
2018-04-14T03:41:55.620Z,8.60
2018-04-14T03:44:23.669Z,8.70
2018-04-14T03:46:53.480Z,8.60
2018-04-14T03:49:21.525Z,8.50
2018-04-14T03:51:49.581Z,8.50
2018-04-14T03:54:17.628Z,8.50
2018-04-14T03:56:45.689Z,8.40
2018-04-14T03:59:13.757Z,8.50
2018-04-14T04:01:41.820Z,8.50
2018-04-14T04:04:09.863Z,8.60
2018-04-14T04:06:37.920Z,8.70
2018-04-14T04:09:05.972Z,8.80
2018-04-14T04:11:34.104Z,8.90
2018-04-14T04:14:02.156Z,8.80
2018-04-14T04:16:30.218Z,8.70
2018-04-14T04:19:15.728Z,8.60
2018-04-14T04:22:01.484Z,8.70
2018-04-14T04:24:47.249Z,8.70
2018-04-14T04:27:15.305Z,8.80
2018-04-14T04:29:43.436Z,8.90
2018-04-14T04:32:11.485Z,8.80
2018-04-14T04:34:39.547Z,8.80
2018-04-14T04:37:07.612Z,8.70
2018-04-14T04:39:35.657Z,8.80
2018-04-14T04:42:03.788Z,8.70
2018-04-14T04:44:31.832Z,8.50
2018-04-14T04:46:59.928Z,8.50
2018-04-14T04:49:27.972Z,8.60
2018-04-14T04:51:56.047Z,8.50
2018-04-14T04:54:24.093Z,8.60
2018-04-14T04:56:52.335Z,8.60
2018-04-14T04:59:20.379Z,8.60
2018-04-14T05:01:48.437Z,8.70
2018-04-14T05:04:16.530Z,8.80
2018-04-14T05:06:44.579Z,8.80
2018-04-14T05:09:12.621Z,8.80
2018-04-14T05:11:40.673Z,9.00
2018-04-14T05:14:08.712Z,9.20
2018-04-14T05:16:36.775Z,9.40
2018-04-14T05:19:04.848Z,9.60
2018-04-14T05:21:32.900Z,9.80
2018-04-14T05:24:00.984Z,11.10
2018-04-14T05:26:29.043Z,11.50
2018-04-14T05:28:57.138Z,11.40
2018-04-14T05:31:25.188Z,11.30
2018-04-14T05:33:54.105Z,11.60
2018-04-14T05:36:24.104Z,11.90
2018-04-14T05:38:52.179Z,12.30
2018-04-14T05:41:20.237Z,12.20
2018-04-14T05:43:48.288Z,12.70
2018-04-14T05:46:16.366Z,12.20
2018-04-14T05:48:44.414Z,11.50
2018-04-14T05:51:12.604Z,11.00
2018-04-14T05:53:40.677Z,10.70
2018-04-14T05:56:08.729Z,10.60
2018-04-14T05:58:36.792Z,10.60
2018-04-14T06:01:04.883Z,10.70
2018-04-14T06:03:35.881Z,10.70
2018-04-14T06:06:04.528Z,10.80
2018-04-14T06:08:32.577Z,10.60
2018-04-14T06:11:00.691Z,10.70
2018-04-14T06:13:28.926Z,10.90
2018-04-14T06:15:57.010Z,10.90
2018-04-14T06:18:28.514Z,11.10
2018-04-14T06:20:56.573Z,11.40
2018-04-14T06:23:24.634Z,11.30
2018-04-14T06:25:52.710Z,11.40
2018-04-14T06:28:22.517Z,11.40
2018-04-14T06:30:51.290Z,11.60
2018-04-14T06:33:19.464Z,11.50
2018-04-14T06:35:47.524Z,11.50
2018-04-14T06:38:15.609Z,11.80
2018-04-14T06:40:43.672Z,12.00
2018-04-14T06:43:11.756Z,12.30
2018-04-14T06:45:39.822Z,12.40
2018-04-14T06:48:07.880Z,12.50
2018-04-14T06:50:37.802Z,12.50
2018-04-14T06:53:06.644Z,12.50
2018-04-14T06:55:34.720Z,12.30
2018-04-14T06:58:02.816Z,12.30
2018-04-14T07:00:31.524Z,12.30
2018-04-14T07:02:59.588Z,12.20
2018-04-14T07:05:27.635Z,12.70
2018-04-14T07:07:55.696Z,13.50
2018-04-14T07:10:25.661Z,14.20
2018-04-14T07:12:53.812Z,15.00
2018-04-14T07:15:21.897Z,15.10
2018-04-14T07:17:49.970Z,15.40
2018-04-14T07:20:18.008Z,15.80
2018-04-14T07:22:46.091Z,15.90
2018-04-14T07:25:14.148Z,15.70
2018-04-14T07:27:42.212Z,16.00
2018-04-14T07:30:10.264Z,16.30
2018-04-14T07:32:38.332Z,16.10
2018-04-14T07:35:06.450Z,15.70
2018-04-14T07:37:34.574Z,15.70
2018-04-14T07:40:02.601Z,15.50
2018-04-14T07:42:30.664Z,15.60
2018-04-14T07:44:58.771Z,15.40
2018-04-14T07:47:26.772Z,15.30
2018-04-14T07:49:55.491Z,15.00
2018-04-14T07:52:23.548Z,14.90
2018-04-14T07:54:52.253Z,14.80
2018-04-14T07:57:20.305Z,15.10
2018-04-14T07:59:48.356Z,15.20
2018-04-14T08:02:16.733Z,15.30
2018-04-14T08:04:44.849Z,15.30
2018-04-14T08:07:12.905Z,15.50
2018-04-14T08:09:40.960Z,15.20
2018-04-14T08:12:09.056Z,15.50
2018-04-14T08:14:37.109Z,15.70
2018-04-14T08:17:05.192Z,15.80
2018-04-14T08:19:33.247Z,15.80
2018-04-14T08:22:01.298Z,16.10
2018-04-14T08:24:29.356Z,16.20
2018-04-14T08:26:57.429Z,16.50
2018-04-14T08:29:25.965Z,16.50
2018-04-14T08:31:54.112Z,16.80
2018-04-14T08:34:22.168Z,16.80
2018-04-14T08:36:50.276Z,16.90
2018-04-14T08:39:18.333Z,16.80
2018-04-14T08:41:46.386Z,17.00
2018-04-14T08:44:14.448Z,17.00
2018-04-14T08:46:42.496Z,17.20
2018-04-14T08:49:10.561Z,17.40
2018-04-14T08:51:39.372Z,17.10
2018-04-14T08:54:07.436Z,17.30
2018-04-14T08:56:35.489Z,17.40
2018-04-14T08:59:03.552Z,17.20
2018-04-14T09:01:31.605Z,17.10
2018-04-14T09:03:59.770Z,17.30
2018-04-14T09:06:27.830Z,17.50
2018-04-14T09:08:56.433Z,17.50
2018-04-14T09:11:24.480Z,17.50
2018-04-14T09:13:52.561Z,17.50
2018-04-14T09:16:20.618Z,17.80
2018-04-14T09:18:48.673Z,17.80
2018-04-14T09:21:16.724Z,18.00
2018-04-14T09:23:44.800Z,18.10
2018-04-14T09:26:12.852Z,17.90
2018-04-14T09:28:40.915Z,18.00
2018-04-14T09:31:08.968Z,18.20
2018-04-14T09:33:37.036Z,18.20
2018-04-14T09:36:05.096Z,18.20
2018-04-14T09:38:33.165Z,18.10
2018-04-14T09:41:01.217Z,18.30
2018-04-14T09:43:29.319Z,18.20
2018-04-14T09:45:57.376Z,18.80
2018-04-14T09:48:25.444Z,19.40
2018-04-14T09:50:53.500Z,19.40
2018-04-14T09:53:21.563Z,19.50
2018-04-14T09:55:49.608Z,19.40
2018-04-14T09:58:17.677Z,19.10
2018-04-14T10:00:51.316Z,19.00
2018-04-14T10:03:23.144Z,19.10
2018-04-14T10:05:52.093Z,19.30
2018-04-14T10:08:20.174Z,19.50
2018-04-14T10:10:48.220Z,19.80
2018-04-14T10:13:16.291Z,19.80
2018-04-14T10:15:44.367Z,19.70
2018-04-14T10:18:12.438Z,20.10
2018-04-14T10:20:40.504Z,20.20
2018-04-14T10:23:08.577Z,20.20
2018-04-14T10:25:36.651Z,20.50
2018-04-14T10:28:04.745Z,20.40
2018-04-14T10:30:32.802Z,20.60
2018-04-14T10:33:00.854Z,20.30
2018-04-14T10:35:28.916Z,20.30
2018-04-14T10:37:57.822Z,20.20
2018-04-14T10:40:25.768Z,20.30
2018-04-14T10:42:53.824Z,20.40
2018-04-14T10:45:21.953Z,20.30
2018-04-14T10:47:50.023Z,20.50
2018-04-14T10:50:18.073Z,20.30
2018-04-14T10:52:46.122Z,20.40
2018-04-14T10:55:14.218Z,20.50
2018-04-14T10:57:42.269Z,20.90
2018-04-14T11:00:10.320Z,20.90
2018-04-14T11:02:38.380Z,21.20
2018-04-14T11:05:06.437Z,21.80
2018-04-14T11:07:34.503Z,22.10
2018-04-14T11:10:02.572Z,21.20
2018-04-14T11:12:30.723Z,21.00
2018-04-14T11:14:58.785Z,21.90
2018-04-14T11:17:26.845Z,22.20
2018-04-14T11:19:54.904Z,22.00
2018-04-14T11:22:23.725Z,22.90
2018-04-14T11:24:52.200Z,23.50
2018-04-14T11:27:20.248Z,23.30
2018-04-14T11:29:48.337Z,23.60
2018-04-14T11:32:16.389Z,23.30
2018-04-14T11:34:44.473Z,23.20
2018-04-14T11:37:12.529Z,23.50
2018-04-14T11:39:40.588Z,24.00
2018-04-14T11:42:08.656Z,24.20
2018-04-14T11:44:36.713Z,22.60
2018-04-14T11:47:04.765Z,23.60
2018-04-14T11:49:32.837Z,24.70
2018-04-14T11:52:00.980Z,24.50
2018-04-14T11:54:29.030Z,24.70
2018-04-14T11:56:57.109Z,25.40
2018-04-14T11:59:25.168Z,25.90
2018-04-14T12:01:53.260Z,25.40
2018-04-14T12:04:21.327Z,25.30
2018-04-14T12:06:49.375Z,25.30
2018-04-14T12:09:17.436Z,25.10
2018-04-14T12:11:45.488Z,25.40
2018-04-14T12:14:13.596Z,25.60
2018-04-14T12:16:41.645Z,25.10
2018-04-14T12:19:09.731Z,25.20
2018-04-14T12:21:37.781Z,25.20
2018-04-14T12:24:05.844Z,24.30
2018-04-14T12:26:33.900Z,25.00
2018-04-14T12:29:02.043Z,26.20
2018-04-14T12:31:30.104Z,26.50
2018-04-14T12:34:00.050Z,26.50
2018-04-14T12:36:29.253Z,27.60
2018-04-14T12:38:58.066Z,27.10
2018-04-14T12:41:26.123Z,27.20
2018-04-14T12:43:54.953Z,25.40
2018-04-14T12:46:23.048Z,25.10
2018-04-14T12:48:52.248Z,24.70
2018-04-14T12:51:20.316Z,26.00
2018-04-14T12:53:48.384Z,25.70
2018-04-14T12:56:16.446Z,26.50
2018-04-14T12:58:44.535Z,27.50
2018-04-14T13:01:12.618Z,26.90
2018-04-14T13:03:40.660Z,27.30
2018-04-14T13:06:08.722Z,25.90
2018-04-14T13:08:36.776Z,25.10
2018-04-14T13:11:04.832Z,25.30
2018-04-14T13:13:32.956Z,26.30
2018-04-14T13:16:01.020Z,26.80
2018-04-14T13:18:30.072Z,27.30
2018-04-14T13:20:58.139Z,28.00
2018-04-14T13:23:26.264Z,27.90
2018-04-14T13:25:54.350Z,28.40
2018-04-14T13:28:22.396Z,27.40
2018-04-14T13:30:50.456Z,26.50
2018-04-14T13:33:18.530Z,25.60
2018-04-14T13:35:46.601Z,25.90
2018-04-14T13:38:14.645Z,25.30
2018-04-14T13:40:42.728Z,24.60
2018-04-14T13:43:10.832Z,23.90
2018-04-14T13:45:38.904Z,23.70
2018-04-14T13:48:06.973Z,23.00
2018-04-14T13:50:35.036Z,23.60
2018-04-14T13:53:03.089Z,24.20
2018-04-14T13:55:31.152Z,23.40
2018-04-14T13:57:59.268Z,22.50
2018-04-14T14:00:27.339Z,23.50
2018-04-14T14:02:55.387Z,22.80
2018-04-14T14:05:23.441Z,23.00
2018-04-14T14:07:52.115Z,23.60
2018-04-14T14:10:20.168Z,24.20
2018-04-14T14:12:48.220Z,24.30
2018-04-14T14:15:16.280Z,24.40
2018-04-14T14:17:44.333Z,24.20
2018-04-14T14:20:12.398Z,23.90
2018-04-14T14:22:40.482Z,24.10
2018-04-14T14:25:08.541Z,24.30
2018-04-14T14:27:36.596Z,24.40
2018-04-14T14:30:04.702Z,23.80
2018-04-14T14:32:32.770Z,24.10
2018-04-14T14:35:01.146Z,23.20
2018-04-14T14:37:29.211Z,23.20
2018-04-14T14:39:57.284Z,23.50
2018-04-14T14:42:25.353Z,23.80
2018-04-14T14:44:53.404Z,23.40
2018-04-14T14:47:21.470Z,23.30
2018-04-14T14:49:49.520Z,24.30
2018-04-14T14:52:17.580Z,24.60
2018-04-14T14:54:45.632Z,24.30
2018-04-14T14:57:13.697Z,24.00
2018-04-14T14:59:41.748Z,24.40
2018-04-14T15:02:09.825Z,25.00
2018-04-14T15:04:37.877Z,25.10
2018-04-14T15:07:05.957Z,25.50
2018-04-14T15:09:34.011Z,24.30
2018-04-14T15:12:02.088Z,24.40
2018-04-14T15:14:30.148Z,24.80
2018-04-14T15:16:58.252Z,23.90
2018-04-14T15:19:26.322Z,24.10
2018-04-14T15:21:54.383Z,23.60
2018-04-14T15:24:22.428Z,23.50
2018-04-14T15:26:50.541Z,23.90
2018-04-14T15:29:18.601Z,23.70
2018-04-14T15:31:46.657Z,23.50
2018-04-14T15:34:14.711Z,22.90
2018-04-14T15:36:42.817Z,23.70
2018-04-14T15:39:10.886Z,23.60
2018-04-14T15:41:38.976Z,23.70
2018-04-14T15:44:07.132Z,23.60
2018-04-14T15:46:35.187Z,23.20
2018-04-14T15:49:03.248Z,22.70
2018-04-14T15:51:32.020Z,21.40
2018-04-14T15:54:01.088Z,21.30
2018-04-14T15:56:30.053Z,21.40
2018-04-14T15:58:58.144Z,21.10
2018-04-14T16:01:26.209Z,20.50
2018-04-14T16:03:54.366Z,20.20
2018-04-14T16:06:22.437Z,20.30
2018-04-14T16:08:50.484Z,20.00
2018-04-14T16:11:18.678Z,20.20
2018-04-14T16:13:47.581Z,20.50
2018-04-14T16:16:16.760Z,20.50
2018-04-14T16:18:44.813Z,20.30
2018-04-14T16:21:12.875Z,20.50
2018-04-14T16:23:41.622Z,20.50
2018-04-14T16:26:09.688Z,20.70
2018-04-14T16:28:39.244Z,21.40
2018-04-14T16:31:07.347Z,21.90
2018-04-14T16:33:35.424Z,21.60
2018-04-14T16:36:04.438Z,21.20
2018-04-14T16:38:32.496Z,20.80
2018-04-14T16:41:01.458Z,20.30
2018-04-14T16:43:29.504Z,19.80
2018-04-14T16:45:57.609Z,19.60
2018-04-14T16:48:25.664Z,19.50
2018-04-14T16:50:53.725Z,19.40
2018-04-14T16:53:23.684Z,19.00
2018-04-14T16:55:52.161Z,18.90
2018-04-14T16:58:20.226Z,19.20
2018-04-14T17:00:48.274Z,19.30
2018-04-14T17:03:17.764Z,19.10
2018-04-14T17:05:46.649Z,18.80
2018-04-14T17:08:14.714Z,18.70
2018-04-14T17:10:42.759Z,18.50
2018-04-14T17:13:12.372Z,18.60
2018-04-14T17:15:40.437Z,18.20
2018-04-14T17:18:08.500Z,18.30
2018-04-14T17:20:43.299Z,18.20
2018-04-14T17:23:11.422Z,17.90
2018-04-14T17:25:39.545Z,17.90
2018-04-14T17:28:07.624Z,18.00
2018-04-14T17:30:35.696Z,18.20
2018-04-14T17:33:03.757Z,18.00
2018-04-14T17:35:32.872Z,17.80
2018-04-14T17:38:00.941Z,17.80
2018-04-14T17:40:29.102Z,17.60
2018-04-14T17:42:57.180Z,17.60
2018-04-14T17:45:25.236Z,17.60
2018-04-14T17:47:53.304Z,17.60
2018-04-14T17:50:21.397Z,17.60
2018-04-14T17:52:49.454Z,17.40
2018-04-14T17:55:17.626Z,17.20
2018-04-14T17:57:45.692Z,17.10
2018-04-14T18:00:13.773Z,17.10
2018-04-14T18:02:41.875Z,17.10
2018-04-14T18:05:09.924Z,17.00
2018-04-14T18:07:38.805Z,17.20
2018-04-14T18:10:06.894Z,17.10
2018-04-14T18:12:35.875Z,17.00
2018-04-14T18:15:04.249Z,16.70
2018-04-14T18:17:32.310Z,17.10
2018-04-14T18:20:01.085Z,17.20
2018-04-14T18:22:29.142Z,17.10
2018-04-14T18:24:57.199Z,17.00
2018-04-14T18:27:26.227Z,16.70
2018-04-14T18:29:54.300Z,16.60
2018-04-14T18:32:22.364Z,16.60
2018-04-14T18:34:51.249Z,16.30
2018-04-14T18:37:19.337Z,16.30
2018-04-14T18:39:47.404Z,16.20
2018-04-14T18:42:15.468Z,16.20
2018-04-14T18:44:43.534Z,16.20
2018-04-14T18:47:11.596Z,16.20
2018-04-14T18:49:39.676Z,16.10
2018-04-14T18:52:08.242Z,15.90
2018-04-14T18:54:36.347Z,15.80
2018-04-14T18:57:04.444Z,16.00
2018-04-14T18:59:32.504Z,15.80
2018-04-14T19:02:00.653Z,15.90
2018-04-14T19:04:28.728Z,15.80
2018-04-14T19:06:56.788Z,15.60
2018-04-14T19:09:24.873Z,15.60
2018-04-14T19:11:52.925Z,15.60
2018-04-14T19:14:20.991Z,15.50
2018-04-14T19:16:49.053Z,15.40
2018-04-14T19:19:17.108Z,15.40
2018-04-14T19:21:45.165Z,15.40
2018-04-14T19:24:13.311Z,15.50
2018-04-14T19:26:41.366Z,15.50
2018-04-14T19:29:09.484Z,15.40
2018-04-14T19:31:37.537Z,15.40
2018-04-14T19:34:05.602Z,15.40
2018-04-14T19:36:33.755Z,15.30
2018-04-14T19:39:01.811Z,15.40
2018-04-14T19:41:29.892Z,15.30
2018-04-14T19:43:57.948Z,15.30
2018-04-14T19:46:26.033Z,15.20
2018-04-14T19:48:54.104Z,15.30
2018-04-14T19:51:22.169Z,15.20
2018-04-14T19:53:50.245Z,15.10
2018-04-14T19:56:18.316Z,15.10
2018-04-14T19:58:46.392Z,15.00
2018-04-14T20:01:14.452Z,15.10
2018-04-14T20:03:42.533Z,15.10
2018-04-14T20:06:10.712Z,15.00
2018-04-14T20:08:38.764Z,15.00
2018-04-14T20:11:06.836Z,14.90
2018-04-14T20:13:34.917Z,14.80
2018-04-14T20:16:02.984Z,14.90
2018-04-14T20:18:31.065Z,14.90
2018-04-14T20:20:59.141Z,14.80
2018-04-14T20:23:27.209Z,14.70
2018-04-14T20:25:55.273Z,14.70
2018-04-14T20:28:23.335Z,14.70
2018-04-14T20:30:52.330Z,14.60
2018-04-14T20:33:20.400Z,14.70
2018-04-14T20:35:48.469Z,14.90
2018-04-14T20:38:16.520Z,14.80
2018-04-14T20:40:44.589Z,14.80
2018-04-14T20:43:12.644Z,14.60
2018-04-14T20:45:40.727Z,14.40
2018-04-14T20:48:08.792Z,14.60
2018-04-14T20:50:36.847Z,14.80
2018-04-14T20:53:04.907Z,14.80
2018-04-14T20:55:32.962Z,14.90
2018-04-14T20:58:01.016Z,15.10
2018-04-14T21:00:29.077Z,14.90
2018-04-14T21:02:57.152Z,14.70
2018-04-14T21:05:25.221Z,14.60
2018-04-14T21:07:53.281Z,14.50
2018-04-14T21:10:21.348Z,14.30
2018-04-14T21:12:51.510Z,14.20
2018-04-14T21:15:19.572Z,14.20
2018-04-14T21:17:47.621Z,14.10
2018-04-14T21:20:15.680Z,14.10
2018-04-14T21:22:43.732Z,14.10
2018-04-14T21:25:11.846Z,14.10
2018-04-14T21:27:39.896Z,13.90
2018-04-14T21:30:07.945Z,13.80
2018-04-14T21:32:36.004Z,13.80
2018-04-14T21:35:04.064Z,13.70
2018-04-14T21:37:32.189Z,13.70
2018-04-14T21:40:00.256Z,13.90
2018-04-14T21:42:28.305Z,13.80
2018-04-14T21:44:56.377Z,13.70
2018-04-14T21:47:24.472Z,13.60
2018-04-14T21:49:52.546Z,13.60
2018-04-14T21:52:20.596Z,13.50
2018-04-14T21:54:48.665Z,13.50
2018-04-14T21:57:16.752Z,13.50
2018-04-14T21:59:44.824Z,13.50
2018-04-14T22:02:12.880Z,13.30
2018-04-14T22:04:40.937Z,13.30
2018-04-14T22:07:09.032Z,13.20
2018-04-14T22:09:37.096Z,13.20
2018-04-14T22:12:05.156Z,13.20
2018-04-14T22:14:34.867Z,13.40
2018-04-14T22:17:03.780Z,13.10
2018-04-14T22:19:31.828Z,13.10
2018-04-14T22:21:59.889Z,13.10
2018-04-14T22:24:27.988Z,13.00
2018-04-14T22:26:56.048Z,12.90
2018-04-14T22:29:24.128Z,12.90
2018-04-14T22:31:52.195Z,12.90
2018-04-14T22:34:20.247Z,12.80
2018-04-14T22:36:48.324Z,12.90
2018-04-14T22:39:16.395Z,12.90
2018-04-14T22:41:44.448Z,12.80
2018-04-14T22:44:12.509Z,12.80
2018-04-14T22:46:40.572Z,12.80
2018-04-14T22:49:08.697Z,12.80
2018-04-14T22:51:36.756Z,12.80
2018-04-14T22:54:04.812Z,12.80
2018-04-14T22:56:32.939Z,12.80
2018-04-14T22:59:00.952Z,12.90
2018-04-14T23:01:29.008Z,12.80
2018-04-14T23:03:57.069Z,12.70
2018-04-14T23:06:25.140Z,12.70
2018-04-14T23:08:53.221Z,12.60
2018-04-14T23:11:21.292Z,12.70
2018-04-14T23:13:49.387Z,12.60
2018-04-14T23:16:17.413Z,12.70
2018-04-14T23:18:45.465Z,12.60
2018-04-14T23:21:13.528Z,12.60
2018-04-14T23:23:41.577Z,12.60
2018-04-14T23:26:09.664Z,12.50
2018-04-14T23:28:37.710Z,12.50
2018-04-14T23:31:05.776Z,12.60
2018-04-14T23:33:33.832Z,12.70
2018-04-14T23:36:01.891Z,12.50
2018-04-14T23:38:30.004Z,12.30
2018-04-14T23:40:58.069Z,12.40
2018-04-14T23:43:26.124Z,12.40
2018-04-14T23:45:54.180Z,12.50
2018-04-14T23:48:22.289Z,12.40
2018-04-14T23:50:50.337Z,12.30
2018-04-14T23:53:18.401Z,12.30
2018-04-14T23:55:46.502Z,12.30
2018-04-14T23:58:14.667Z,12.20
